St Helier, United Kingdom
Current Conditions -  °F | °C
As of 9:50 PM on Thursday 23 Oct 2014 (Local Time) from EGJJ Reporting Station
Broken Clouds Broken Clouds  
Wind Chill: 61°   Ceiling: 2100
Heat Index: 61°   Visibility: 6mi
Dew Point: 57°   Wind: 14mph
Humidity: 88%   Direction: 210°SSW
Pressure: 30.12"   Gusts: NA
Location:  49.18°N, 2.1°W
Report Text: EGJJ 232050Z 21012KT 9999 FEW008 BKN021 16/14 Q1020 BECMG BKN015
Loading
Personal Weather Stations






























Interactive Weather Map
Tropical Storm Tracking
New forecast layout! Learn more

10-Day Weather Forecast

Advertisements
Track Severe Weather on mobile